createdAt,value
2023-05-15T00:02:22.950Z,25.97
2023-05-15T00:06:28.095Z,27.53
2023-05-15T00:10:30.858Z,26.83
2023-05-15T00:14:33.559Z,25.37
2023-05-15T00:18:36.560Z,26.97
2023-05-15T00:22:43.204Z,24.90
2023-05-15T00:26:45.969Z,26.93
2023-05-15T00:30:48.749Z,27.47
2023-05-15T00:34:51.485Z,24.87
2023-05-15T00:38:55.703Z,28.33
2023-05-15T00:43:01.601Z,26.83
2023-05-15T00:47:05.443Z,26.67
2023-05-15T00:51:08.529Z,25.70
2023-05-15T00:55:12.732Z,25.37
2023-05-15T00:59:17.110Z,27.97
2023-05-15T01:03:20.029Z,27.10
2023-05-15T01:07:22.899Z,26.77
2023-05-15T01:11:35.785Z,26.60
2023-05-15T01:15:39.703Z,27.90
2023-05-15T01:19:43.504Z,30.53
2023-05-15T01:23:58.659Z,28.03
2023-05-15T01:28:06.687Z,31.03
2023-05-15T01:32:13.970Z,36.17
2023-05-15T01:36:23.272Z,32.00
2023-05-15T01:40:29.284Z,32.37
2023-05-15T01:44:37.041Z,35.23
2023-05-15T01:48:44.547Z,33.27
2023-05-15T01:52:51.632Z,37.30
2023-05-15T01:56:56.774Z,33.17
2023-05-15T02:01:02.344Z,38.53
2023-05-15T02:05:06.391Z,36.47
2023-05-15T02:09:10.872Z,30.50
2023-05-15T02:13:14.618Z,36.13
2023-05-15T02:17:18.983Z,36.13
2023-05-15T02:21:21.921Z,38.60
2023-05-15T02:25:35.746Z,34.97
2023-05-15T02:29:48.685Z,35.57
2023-05-15T02:34:00.319Z,41.70
2023-05-15T02:38:09.502Z,37.47
2023-05-15T02:42:13.804Z,41.73
2023-05-15T02:46:17.695Z,39.03
2023-05-15T02:50:22.274Z,40.87
2023-05-15T02:54:25.320Z,41.07
2023-05-15T02:58:28.103Z,40.93
2023-05-15T03:02:30.845Z,39.20
2023-05-15T03:06:35.001Z,40.97
2023-05-15T03:10:37.760Z,45.33
2023-05-15T03:14:40.467Z,43.20
2023-05-15T03:18:43.247Z,41.87
2023-05-15T03:22:47.466Z,43.13
2023-05-15T03:26:50.240Z,40.90
2023-05-15T03:30:53.345Z,41.07
2023-05-15T03:34:56.333Z,44.07
2023-05-15T03:39:00.530Z,38.60
2023-05-15T03:43:03.366Z,42.70
2023-05-15T03:47:06.456Z,38.60
2023-05-15T03:51:09.297Z,44.17
2023-05-15T03:55:13.390Z,44.10
2023-05-15T03:59:16.521Z,42.33
2023-05-15T04:03:19.999Z,43.73
2023-05-15T04:07:22.753Z,46.33
2023-05-15T04:11:28.509Z,40.00
2023-05-15T04:15:31.515Z,45.17
2023-05-15T04:19:34.279Z,38.23
2023-05-15T04:23:36.992Z,34.03
2023-05-15T04:27:41.452Z,35.80
2023-05-15T04:31:44.689Z,35.00
2023-05-15T04:35:48.121Z,33.60
2023-05-15T04:39:50.858Z,33.77
2023-05-15T04:43:55.063Z,29.73
2023-05-15T04:47:57.857Z,37.47
2023-05-15T04:52:01.518Z,30.07
2023-05-15T04:56:04.397Z,32.40
2023-05-15T05:00:12.398Z,35.50
2023-05-15T05:04:19.347Z,36.27
2023-05-15T05:08:22.136Z,37.30
2023-05-15T05:12:26.011Z,31.33
2023-05-15T05:16:31.987Z,31.37
2023-05-15T05:20:34.935Z,31.17
2023-05-15T05:24:38.055Z,34.80
2023-05-15T05:28:40.865Z,35.40
2023-05-15T05:32:44.967Z,32.83
2023-05-15T05:36:47.730Z,26.93
2023-05-15T05:40:51.050Z,30.53
2023-05-15T05:44:53.760Z,28.17
2023-05-15T05:48:58.092Z,28.07
2023-05-15T05:53:01.005Z,26.37
2023-05-15T05:57:03.879Z,29.57
2023-05-15T06:01:07.026Z,31.33
2023-05-15T06:05:11.524Z,28.90
2023-05-15T06:09:14.264Z,29.17
2023-05-15T06:13:17.449Z,26.33
2023-05-15T06:17:20.797Z,29.67
2023-05-15T06:21:24.894Z,26.30
2023-05-15T06:25:27.658Z,28.23
2023-05-15T06:29:31.314Z,26.57
2023-05-15T06:33:34.042Z,30.23
2023-05-15T06:37:38.609Z,27.37
2023-05-15T06:41:41.282Z,27.13
2023-05-15T06:45:48.305Z,28.57
2023-05-15T06:49:51.015Z,29.10
2023-05-15T06:53:55.129Z,30.87
2023-05-15T06:57:58.097Z,28.43
2023-05-15T07:02:01.343Z,34.07
2023-05-15T07:06:05.396Z,32.30
2023-05-15T07:10:10.833Z,29.90
2023-05-15T07:14:13.873Z,27.23
2023-05-15T07:18:17.954Z,27.70
2023-05-15T07:22:20.837Z,27.97
2023-05-15T07:26:34.348Z,27.90
2023-05-15T07:30:39.330Z,29.20
2023-05-15T07:34:42.857Z,30.57
2023-05-15T07:38:45.648Z,30.63
2023-05-15T07:42:49.750Z,29.00
2023-05-15T07:46:52.520Z,27.73
2023-05-15T07:50:57.150Z,29.03
2023-05-15T07:55:00.716Z,29.70
2023-05-15T07:59:04.847Z,29.27
2023-05-15T08:03:07.931Z,28.67
2023-05-15T08:07:11.229Z,28.80
2023-05-15T08:11:14.332Z,25.77
2023-05-15T08:15:19.493Z,27.63
2023-05-15T08:19:24.041Z,24.90
2023-05-15T08:23:27.605Z,25.90
2023-05-15T08:27:30.914Z,25.00
2023-05-15T08:31:36.511Z,23.10
2023-05-15T08:35:39.723Z,26.53
2023-05-15T08:39:42.594Z,22.07
2023-05-15T08:43:46.120Z,20.73
2023-05-15T08:47:50.756Z,23.20
2023-05-15T08:51:54.632Z,20.33
2023-05-15T08:55:58.990Z,21.77
2023-05-15T09:00:02.733Z,16.07
2023-05-15T09:04:07.570Z,16.07
2023-05-15T09:08:11.257Z,17.77
2023-05-15T09:12:16.454Z,16.53
2023-05-15T09:16:21.113Z,14.47
2023-05-15T09:20:30.672Z,12.37
2023-05-15T09:24:36.582Z,12.83
2023-05-15T09:28:39.503Z,13.67
2023-05-15T09:32:42.664Z,13.30
2023-05-15T09:36:47.621Z,13.37
2023-05-15T09:40:50.527Z,13.47
2023-05-15T09:44:53.534Z,13.03
2023-05-15T09:48:56.733Z,11.87
2023-05-15T09:53:01.979Z,12.80
2023-05-15T09:57:09.509Z,12.50
2023-05-15T10:01:13.251Z,12.40
2023-05-15T10:05:17.582Z,13.10
2023-05-15T10:09:24.873Z,12.47
2023-05-15T10:13:28.879Z,11.27
2023-05-15T10:17:35.433Z,13.60
2023-05-15T10:21:39.589Z,12.50
2023-05-15T10:25:50.372Z,10.93
2023-05-15T10:29:54.079Z,11.33
2023-05-15T10:33:57.819Z,10.10
2023-05-15T10:38:02.089Z,12.10
2023-05-15T10:42:07.767Z,12.63
2023-05-15T10:46:12.583Z,12.23
2023-05-15T10:50:17.007Z,12.70
2023-05-15T10:54:20.426Z,10.43
2023-05-15T10:58:25.514Z,10.27
2023-05-15T11:02:31.419Z,10.43
2023-05-15T11:06:34.984Z,10.30
2023-05-15T11:10:38.915Z,9.77
2023-05-15T11:14:44.394Z,10.00
2023-05-15T11:18:47.313Z,8.43
2023-05-15T11:22:59.648Z,9.33
2023-05-15T11:27:05.620Z,9.17
2023-05-15T11:31:10.206Z,8.57
2023-05-15T11:35:13.843Z,7.40
2023-05-15T11:39:18.060Z,8.10
2023-05-15T11:43:22.656Z,7.80
2023-05-15T11:47:30.175Z,8.20
2023-05-15T11:51:35.451Z,7.87
2023-05-15T11:55:40.229Z,7.53
2023-05-15T11:59:45.460Z,6.70
2023-05-15T12:03:50.385Z,6.80
2023-05-15T12:07:53.424Z,7.00
2023-05-15T12:11:57.025Z,8.00
2023-05-15T12:16:00.536Z,8.27
2023-05-15T12:20:06.885Z,8.90
2023-05-15T12:24:12.638Z,10.10
2023-05-15T12:28:16.085Z,10.17
2023-05-15T12:32:19.318Z,9.17
2023-05-15T12:36:23.760Z,10.23
2023-05-15T12:40:26.968Z,10.53
2023-05-15T12:44:30.189Z,12.13
2023-05-15T12:48:33.569Z,10.47
2023-05-15T12:52:37.730Z,10.67
2023-05-15T12:56:41.687Z,10.70
2023-05-15T13:00:46.045Z,11.60
2023-05-15T13:04:48.900Z,9.13
2023-05-15T13:08:55.777Z,9.37
2023-05-15T13:12:59.151Z,9.73
2023-05-15T13:17:03.579Z,9.70
2023-05-15T13:21:06.535Z,9.00
2023-05-15T13:25:11.208Z,9.13
2023-05-15T13:29:13.999Z,8.20
2023-05-15T13:33:16.926Z,6.67
2023-05-15T13:37:19.742Z,6.60
2023-05-15T13:41:23.928Z,5.27
2023-05-15T13:45:26.665Z,5.03
2023-05-15T13:49:30.122Z,6.77
2023-05-15T13:53:32.898Z,6.83
2023-05-15T13:57:37.264Z,5.73
2023-05-15T14:01:39.965Z,5.23
2023-05-15T14:05:42.789Z,5.67
2023-05-15T14:09:46.089Z,5.37
2023-05-15T14:13:50.148Z,4.50
2023-05-15T14:17:55.437Z,3.10
2023-05-15T14:21:58.760Z,3.50
2023-05-15T14:26:01.491Z,4.13
2023-05-15T14:30:06.851Z,4.90
2023-05-15T14:34:09.967Z,4.13
2023-05-15T14:38:12.871Z,3.87
2023-05-15T14:42:17.096Z,4.97
2023-05-15T14:46:21.255Z,4.87
2023-05-15T14:50:24.191Z,4.27
2023-05-15T14:54:27.059Z,5.00
2023-05-15T14:58:30.659Z,5.13
2023-05-15T15:02:35.002Z,4.43
2023-05-15T15:06:37.808Z,5.20
2023-05-15T15:10:43.347Z,5.40
2023-05-15T15:14:46.123Z,4.80
2023-05-15T15:18:50.498Z,8.30
2023-05-15T15:22:53.925Z,11.07
2023-05-15T15:26:56.767Z,10.97
2023-05-15T15:30:59.527Z,9.93
2023-05-15T15:35:04.405Z,10.07
2023-05-15T15:39:07.141Z,10.03
2023-05-15T15:43:10.017Z,10.30
2023-05-15T15:47:12.786Z,10.57
2023-05-15T15:51:16.947Z,10.73
2023-05-15T15:55:19.901Z,13.47
2023-05-15T15:59:22.735Z,13.73
2023-05-15T16:03:25.534Z,12.10
2023-05-15T16:07:29.713Z,11.40
2023-05-15T16:11:32.468Z,10.73
2023-05-15T16:15:35.184Z,11.37
2023-05-15T16:19:37.939Z,10.80
2023-05-15T16:23:42.240Z,9.63
2023-05-15T16:27:44.935Z,9.93
2023-05-15T16:31:47.828Z,10.80
2023-05-15T16:35:50.903Z,10.97
2023-05-15T16:39:55.078Z,11.00
2023-05-15T16:43:57.820Z,10.67
2023-05-15T16:48:00.581Z,12.70
2023-05-15T16:52:03.336Z,11.77
2023-05-15T16:56:08.306Z,13.83
2023-05-15T17:00:12.944Z,14.57
2023-05-15T17:04:15.649Z,13.40
2023-05-15T17:08:18.385Z,13.00
2023-05-15T17:12:22.590Z,14.80
2023-05-15T17:16:25.325Z,14.30
2023-05-15T17:20:28.649Z,14.07
2023-05-15T17:24:46.387Z,13.53
2023-05-15T17:28:53.897Z,14.20
2023-05-15T17:32:56.829Z,13.47
2023-05-15T17:36:59.665Z,14.00
2023-05-15T17:41:02.596Z,13.40
2023-05-15T17:45:07.887Z,13.00
2023-05-15T17:49:11.752Z,13.10
2023-05-15T17:53:15.185Z,13.27
2023-05-15T17:57:17.948Z,13.00
2023-05-15T18:01:22.132Z,12.70
2023-05-15T18:05:25.122Z,12.40
2023-05-15T18:09:28.101Z,14.10
2023-05-15T18:13:30.931Z,12.97
2023-05-15T18:17:35.017Z,13.33
2023-05-15T18:21:38.132Z,14.00
2023-05-15T18:25:41.071Z,14.27
2023-05-15T18:29:45.533Z,14.20
2023-05-15T18:33:49.804Z,13.93
2023-05-15T18:37:52.513Z,13.43
2023-05-15T18:41:55.564Z,13.47
2023-05-15T18:45:58.247Z,14.50
2023-05-15T18:50:02.609Z,15.00
2023-05-15T18:54:05.365Z,14.07
2023-05-15T18:58:08.639Z,14.73
2023-05-15T19:02:11.578Z,14.23
2023-05-15T19:06:19.715Z,15.73
2023-05-15T19:10:22.677Z,14.57
2023-05-15T19:14:25.591Z,14.23
2023-05-15T19:18:28.727Z,16.97
2023-05-15T19:22:34.177Z,16.53
2023-05-15T19:26:37.377Z,15.57
2023-05-15T19:30:40.108Z,16.03
2023-05-15T19:34:43.034Z,14.70
2023-05-15T19:38:47.883Z,15.30
2023-05-15T19:42:53.374Z,13.10
2023-05-15T19:46:56.142Z,15.47
2023-05-15T19:50:58.993Z,14.33
2023-05-15T19:55:03.701Z,15.90
2023-05-15T19:59:06.477Z,15.87
2023-05-15T20:03:09.501Z,15.33
2023-05-15T20:07:12.860Z,16.60
2023-05-15T20:11:17.558Z,16.43
2023-05-15T20:15:20.460Z,15.40
2023-05-15T20:19:24.729Z,13.87
2023-05-15T20:23:27.919Z,14.90
2023-05-15T20:27:32.125Z,12.63
2023-05-15T20:31:34.953Z,10.40
2023-05-15T20:35:38.748Z,11.40
2023-05-15T20:39:41.491Z,10.40
2023-05-15T20:43:45.622Z,11.73
2023-05-15T20:47:49.475Z,12.30
2023-05-15T20:51:52.466Z,11.73
2023-05-15T20:55:55.350Z,12.17
2023-05-15T20:59:59.556Z,12.10
2023-05-15T21:04:02.437Z,11.83
2023-05-15T21:08:05.649Z,12.10
2023-05-15T21:12:08.939Z,10.30
2023-05-15T21:16:13.033Z,10.97
2023-05-15T21:20:15.892Z,10.80
2023-05-15T21:24:18.887Z,9.53
2023-05-15T21:28:21.729Z,9.77
2023-05-15T21:32:25.866Z,9.37
2023-05-15T21:36:28.606Z,9.27
2023-05-15T21:40:31.271Z,9.70
2023-05-15T21:44:34.004Z,9.10
2023-05-15T21:48:38.059Z,9.00
2023-05-15T21:52:40.942Z,8.30
2023-05-15T21:56:43.721Z,7.50
2023-05-15T22:00:46.528Z,5.83
2023-05-15T22:04:50.704Z,5.77
2023-05-15T22:08:53.590Z,5.50
2023-05-15T22:12:59.011Z,5.30
2023-05-15T22:17:02.138Z,4.00
2023-05-15T22:21:08.569Z,4.30
2023-05-15T22:25:11.768Z,3.73
2023-05-15T22:29:14.532Z,3.93
2023-05-15T22:33:17.297Z,3.90
2023-05-15T22:37:21.850Z,2.50
2023-05-15T22:41:24.728Z,2.00
2023-05-15T22:45:27.481Z,2.20
2023-05-15T22:49:30.480Z,2.57
2023-05-15T22:53:37.068Z,2.00
2023-05-15T22:57:40.570Z,2.00
2023-05-15T23:01:43.838Z,2.43
2023-05-15T23:05:46.761Z,2.40
2023-05-15T23:09:50.936Z,2.13
2023-05-15T23:13:53.675Z,2.47
2023-05-15T23:17:56.672Z,2.77
2023-05-15T23:21:59.402Z,2.83
2023-05-15T23:26:03.501Z,2.60
2023-05-15T23:30:07.374Z,2.37
2023-05-15T23:34:10.153Z,2.70
2023-05-15T23:38:12.982Z,2.73
2023-05-15T23:42:17.088Z,3.03
2023-05-15T23:46:19.914Z,3.13
2023-05-15T23:50:23.086Z,3.20
2023-05-15T23:54:25.960Z,3.07
2023-05-15T23:58:30.006Z,3.03
